createdAt,value
2019-05-03T00:01:25.427Z,97155.70
2019-05-03T00:03:54.687Z,97165.86
2019-05-03T00:06:24.227Z,97158.47
2019-05-03T00:08:53.707Z,97165.66
2019-05-03T00:11:22.924Z,97163.31
2019-05-03T00:13:52.591Z,97163.92
2019-05-03T00:16:27.245Z,97166.84
2019-05-03T00:18:56.490Z,97161.52
2019-05-03T00:21:25.547Z,97167.00
2019-05-03T00:23:54.808Z,97162.73
2019-05-03T00:26:24.048Z,97155.45
2019-05-03T00:28:53.304Z,97156.83
2019-05-03T00:31:23.385Z,97159.75
2019-05-03T00:34:02.249Z,97155.49
2019-05-03T00:36:42.668Z,97158.67
2019-05-03T00:39:24.050Z,97158.98
2019-05-03T00:41:53.592Z,97150.67
2019-05-03T00:44:22.835Z,97158.13
2019-05-03T00:46:53.707Z,97156.79
2019-05-03T00:49:23.668Z,97160.02
2019-05-03T00:51:52.895Z,97152.00
2019-05-03T00:54:22.938Z,97156.52
2019-05-03T00:56:56.835Z,97153.59
2019-05-03T00:59:26.090Z,97157.25
2019-05-03T01:01:55.315Z,97158.19
2019-05-03T01:04:24.566Z,97152.19
2019-05-03T01:06:55.594Z,97151.67
2019-05-03T01:09:26.523Z,97156.97
2019-05-03T01:11:55.740Z,97153.67
2019-05-03T01:14:25.310Z,97152.94
2019-05-03T01:16:55.783Z,97151.10
2019-05-03T01:19:25.217Z,97151.05
2019-05-03T01:21:54.457Z,97150.75
2019-05-03T01:24:26.139Z,97151.00
2019-05-03T01:26:56.797Z,97148.95
2019-05-03T01:29:26.008Z,97147.34
2019-05-03T01:31:57.166Z,97151.87
2019-05-03T01:34:26.392Z,97151.22
2019-05-03T01:36:55.632Z,97145.05
2019-05-03T01:39:25.077Z,97147.25
2019-05-03T01:41:54.865Z,97147.05
2019-05-03T01:44:24.093Z,97144.38
2019-05-03T01:46:54.976Z,97144.64
2019-05-03T01:49:43.732Z,97147.00
2019-05-03T01:52:21.901Z,97148.86
2019-05-03T01:54:52.120Z,97144.67
2019-05-03T01:57:22.177Z,97145.52
2019-05-03T01:59:52.062Z,97139.95
2019-05-03T02:02:41.960Z,97146.06
2019-05-03T02:05:33.284Z,97144.13
2019-05-03T02:08:02.569Z,97142.78
2019-05-03T02:10:32.212Z,97141.55
2019-05-03T02:13:01.769Z,97145.46
2019-05-03T02:15:32.928Z,97142.27
2019-05-03T02:18:02.668Z,97135.38
2019-05-03T02:20:32.449Z,97139.95
2019-05-03T02:23:02.762Z,97145.23
2019-05-03T02:25:32.394Z,97148.98
2019-05-03T02:28:02.040Z,97143.56
2019-05-03T02:30:33.232Z,97140.13
2019-05-03T02:33:04.033Z,97141.55
2019-05-03T02:35:33.590Z,97142.62
2019-05-03T02:38:03.750Z,97142.31
2019-05-03T02:40:33.801Z,97137.50
2019-05-03T02:43:09.707Z,97132.67
2019-05-03T02:45:51.574Z,97138.31
2019-05-03T02:48:30.521Z,97137.19
2019-05-03T02:50:59.769Z,97137.19
2019-05-03T02:53:29.013Z,97132.88
2019-05-03T02:56:15.027Z,97135.00
2019-05-03T02:58:40.109Z,97137.41
2019-05-03T03:01:09.337Z,97139.95
2019-05-03T03:03:40.572Z,97138.57
2019-05-03T03:06:10.047Z,97132.58
2019-05-03T03:08:39.709Z,97135.16
2019-05-03T03:11:09.634Z,97133.26
2019-05-03T03:13:39.596Z,97132.58
2019-05-03T03:16:11.173Z,97133.36
2019-05-03T03:18:41.528Z,97134.17
2019-05-03T03:21:16.336Z,97135.52
2019-05-03T03:24:07.317Z,97135.81
2019-05-03T03:26:42.955Z,97137.97
2019-05-03T03:29:16.011Z,97140.53
2019-05-03T03:31:58.516Z,97131.62
2019-05-03T03:34:32.067Z,97134.59
2019-05-03T03:37:06.560Z,97138.95
2019-05-03T03:39:36.226Z,97140.12
2019-05-03T03:42:06.100Z,97139.69
2019-05-03T03:44:36.587Z,97135.21
2019-05-03T03:47:06.048Z,97140.41
2019-05-03T03:49:37.104Z,97135.08
2019-05-03T03:52:10.340Z,97140.93
2019-05-03T03:54:42.155Z,97144.00
2019-05-03T03:57:15.877Z,97144.52
2019-05-03T03:59:45.750Z,97141.64
2019-05-03T04:02:16.538Z,97144.04
2019-05-03T04:04:46.974Z,97146.92
2019-05-03T04:07:16.632Z,97145.16
2019-05-03T04:09:46.563Z,97151.26
2019-05-03T04:12:16.636Z,97158.91
2019-05-03T04:14:57.946Z,97158.66
2019-05-03T04:17:58.773Z,97163.77
2019-05-03T04:20:35.814Z,97168.19
2019-05-03T04:23:05.412Z,97171.06
2019-05-03T04:25:35.907Z,97174.17
2019-05-03T04:28:05.898Z,97172.42
2019-05-03T04:30:37.907Z,97180.28
2019-05-03T04:33:07.167Z,97183.97
2019-05-03T04:35:36.858Z,97182.00
2019-05-03T04:38:06.287Z,97186.69
2019-05-03T04:40:36.080Z,97192.02
2019-05-03T04:43:06.626Z,97196.89
2019-05-03T04:45:36.604Z,97197.20
2019-05-03T04:48:06.369Z,97199.30
2019-05-03T04:50:36.969Z,97199.30
2019-05-03T04:53:06.319Z,97201.48
2019-05-03T04:55:36.523Z,97198.05
2019-05-03T04:58:06.587Z,97208.25
2019-05-03T05:00:39.341Z,97204.59
2019-05-03T05:03:08.997Z,97213.42
2019-05-03T05:05:39.831Z,97212.47
2019-05-03T05:08:09.104Z,97219.43
2019-05-03T05:10:41.625Z,97224.65
2019-05-03T05:13:10.849Z,97225.64
2019-05-03T05:15:40.479Z,97223.75
2019-05-03T05:18:26.354Z,97231.67
2019-05-03T05:21:15.033Z,97233.33
2019-05-03T05:23:58.957Z,97235.94
2019-05-03T05:26:35.552Z,97245.77
2019-05-03T05:29:08.605Z,97244.38
2019-05-03T05:31:37.837Z,97250.52
2019-05-03T05:34:08.919Z,97243.79
2019-05-03T05:36:45.255Z,97244.13
2019-05-03T05:39:18.713Z,97250.45
2019-05-03T05:41:47.841Z,97255.53
2019-05-03T05:44:17.091Z,97261.30
2019-05-03T05:47:25.529Z,97260.14
2019-05-03T05:49:59.025Z,97260.79
2019-05-03T05:52:28.584Z,97260.84
2019-05-03T05:55:06.791Z,97265.11
2019-05-03T05:57:46.402Z,97267.90
2019-05-03T06:00:21.932Z,97270.78
2019-05-03T06:02:51.443Z,97281.88
2019-05-03T06:05:21.098Z,97282.70
2019-05-03T06:08:01.316Z,97284.03
2019-05-03T06:10:52.767Z,97286.88
2019-05-03T06:13:29.567Z,97288.29
2019-05-03T06:16:15.364Z,97289.89
2019-05-03T06:19:02.298Z,97294.72
2019-05-03T06:21:39.864Z,97298.52
2019-05-03T06:24:17.532Z,97293.95
2019-05-03T06:26:54.627Z,97291.55
2019-05-03T06:29:24.771Z,97291.48
2019-05-03T06:32:21.308Z,97294.53
2019-05-03T06:34:50.878Z,97294.89
2019-05-03T06:37:22.117Z,97297.22
2019-05-03T06:39:51.483Z,97304.60
2019-05-03T06:42:22.762Z,97308.10
2019-05-03T06:44:51.753Z,97304.20
2019-05-03T06:47:21.015Z,97304.54
2019-05-03T06:49:50.313Z,97312.43
2019-05-03T06:52:24.547Z,97316.83
2019-05-03T06:54:50.507Z,97310.58
2019-05-03T06:57:20.038Z,97314.86
2019-05-03T07:00:11.000Z,97313.33
2019-05-03T07:02:59.238Z,97316.72
2019-05-03T07:05:48.745Z,97314.14
2019-05-03T07:08:35.595Z,97314.28
2019-05-03T07:11:05.619Z,97325.03
2019-05-03T07:13:35.162Z,97326.22
2019-05-03T07:16:04.750Z,97323.73
2019-05-03T07:18:35.171Z,97330.16
2019-05-03T07:21:06.456Z,97333.48
2019-05-03T07:23:36.566Z,97330.89
2019-05-03T07:26:05.787Z,97336.64
2019-05-03T07:28:46.322Z,97333.31
2019-05-03T07:31:06.570Z,97337.78
2019-05-03T07:33:36.197Z,97334.31
2019-05-03T07:36:07.907Z,97340.22
2019-05-03T07:38:37.478Z,97336.34
2019-05-03T07:41:06.798Z,97329.91
2019-05-03T07:43:36.287Z,97327.61
2019-05-03T07:46:06.045Z,97335.42
2019-05-03T07:48:35.458Z,97336.23
2019-05-03T07:51:05.485Z,97333.84
2019-05-03T07:53:35.950Z,97336.74
2019-05-03T07:56:14.939Z,97329.08
2019-05-03T07:58:59.059Z,97328.91
2019-05-03T08:01:30.502Z,97343.25
2019-05-03T08:04:01.196Z,97344.18
2019-05-03T08:06:30.411Z,97343.47
2019-05-03T08:09:02.129Z,97346.05
2019-05-03T08:11:31.649Z,97339.45
2019-05-03T08:14:00.893Z,97340.40
2019-05-03T08:16:30.113Z,97343.01
2019-05-03T08:18:59.547Z,97336.97
2019-05-03T08:21:28.797Z,97329.29
2019-05-03T08:23:58.053Z,97329.50
2019-05-03T08:26:29.107Z,97326.07
2019-05-03T08:28:58.360Z,97325.55
2019-05-03T08:31:49.762Z,97329.19
2019-05-03T08:34:49.871Z,97327.58
2019-05-03T08:37:45.317Z,97329.00
2019-05-03T08:40:15.933Z,97331.70
2019-05-03T08:42:45.193Z,97336.99
2019-05-03T08:45:14.889Z,97345.20
2019-05-03T08:47:45.054Z,97340.25
2019-05-03T08:50:20.943Z,97347.66
2019-05-03T08:52:55.517Z,97344.64
2019-05-03T08:55:24.967Z,97349.04
2019-05-03T08:57:55.173Z,97346.63
2019-05-03T09:00:27.940Z,97354.95
2019-05-03T09:02:58.671Z,97342.66
2019-05-03T09:05:28.492Z,97350.39
2019-05-03T09:07:57.769Z,97351.55
2019-05-03T09:10:31.801Z,97352.19
2019-05-03T09:13:07.775Z,97341.28
2019-05-03T09:15:37.439Z,97339.00
2019-05-03T09:18:06.870Z,97338.77
2019-05-03T09:20:36.131Z,97331.09
2019-05-03T09:23:08.423Z,97334.84
2019-05-03T09:25:38.019Z,97329.56
2019-05-03T09:28:07.386Z,97331.84
2019-05-03T09:30:36.709Z,97335.97
2019-05-03T09:33:09.059Z,97339.73
2019-05-03T09:35:37.394Z,97337.38
2019-05-03T09:38:06.921Z,97345.14
2019-05-03T09:40:36.172Z,97354.00
2019-05-03T09:43:05.396Z,97344.49
2019-05-03T09:45:35.296Z,97348.56
2019-05-03T09:48:05.705Z,97354.61
2019-05-03T09:50:35.938Z,97352.44
2019-05-03T09:53:09.063Z,97344.36
2019-05-03T09:55:40.476Z,97348.20
2019-05-03T09:58:09.700Z,97353.43
2019-05-03T10:00:38.946Z,97344.31
2019-05-03T10:03:08.179Z,97344.44
2019-05-03T10:05:37.431Z,97349.53
2019-05-03T10:08:06.670Z,97352.23
2019-05-03T10:10:54.149Z,97359.83
2019-05-03T10:13:26.736Z,97353.93
2019-05-03T10:15:54.937Z,97363.63
2019-05-03T10:18:25.466Z,97356.91
2019-05-03T10:20:56.112Z,97351.81
2019-05-03T10:23:38.811Z,97360.95
2019-05-03T10:26:08.802Z,97362.28
2019-05-03T10:28:38.147Z,97361.73
2019-05-03T10:31:08.041Z,97373.13
2019-05-03T10:33:45.501Z,97367.39
2019-05-03T10:36:15.550Z,97371.77
2019-05-03T10:38:45.983Z,97368.30
2019-05-03T10:41:16.471Z,97373.59
2019-05-03T10:43:45.931Z,97368.42
2019-05-03T10:46:15.903Z,97365.65
2019-05-03T10:48:47.632Z,97362.97
2019-05-03T10:51:16.888Z,97363.47
2019-05-03T10:53:49.785Z,97354.38
2019-05-03T10:56:31.967Z,97352.52
2019-05-03T10:59:03.570Z,97343.53
2019-05-03T11:01:45.202Z,97336.16
2019-05-03T11:04:14.901Z,97338.11
2019-05-03T11:06:45.734Z,97348.60
2019-05-03T11:09:15.457Z,97344.11
2019-05-03T11:11:45.369Z,97341.44
2019-05-03T11:14:18.639Z,97334.88
2019-05-03T11:16:47.978Z,97332.29
2019-05-03T11:19:17.239Z,97330.66
2019-05-03T11:21:46.479Z,97327.42
2019-05-03T11:24:15.694Z,97326.27
2019-05-03T11:26:46.805Z,97325.08
2019-05-03T11:29:16.090Z,97325.56
2019-05-03T11:31:50.768Z,97330.18
2019-05-03T11:34:22.619Z,97324.47
2019-05-03T11:37:11.386Z,97331.05
2019-05-03T11:39:42.692Z,97326.80
2019-05-03T11:42:11.927Z,97321.86
2019-05-03T11:44:41.155Z,97327.18
2019-05-03T11:47:11.083Z,97330.02
2019-05-03T11:49:40.540Z,97331.47
2019-05-03T11:52:09.827Z,97332.12
2019-05-03T11:54:39.058Z,97330.71
2019-05-03T11:57:15.774Z,97331.77
2019-05-03T11:59:45.353Z,97329.70
2019-05-03T12:02:33.783Z,97336.20
2019-05-03T12:05:04.992Z,97337.03
2019-05-03T12:07:39.321Z,97338.67
2019-05-03T12:10:16.324Z,97346.17
2019-05-03T12:12:40.555Z,97349.41
2019-05-03T12:15:10.223Z,97344.58
2019-05-03T12:17:53.861Z,97343.76
2019-05-03T12:20:14.691Z,97349.39
2019-05-03T12:22:46.482Z,97341.75
2019-05-03T12:25:16.669Z,97340.21
2019-05-03T12:27:53.967Z,97339.00
2019-05-03T12:30:27.476Z,97342.52
2019-05-03T12:32:56.870Z,97334.02
2019-05-03T12:35:26.099Z,97321.78
2019-05-03T12:37:55.761Z,97321.78
2019-05-03T12:40:25.545Z,97329.92
2019-05-03T12:42:55.410Z,97329.19
2019-05-03T12:45:25.449Z,97317.63
2019-05-03T12:47:56.063Z,97320.09
2019-05-03T12:50:25.492Z,97314.30
2019-05-03T12:52:55.439Z,97320.03
2019-05-03T12:55:25.143Z,97317.87
2019-05-03T12:57:55.546Z,97313.05
2019-05-03T13:00:39.713Z,97309.19
2019-05-03T13:03:12.774Z,97307.69
2019-05-03T13:05:42.278Z,97312.52
2019-05-03T13:08:30.597Z,97292.75
2019-05-03T13:11:00.430Z,97296.00
2019-05-03T13:13:29.718Z,97293.25
2019-05-03T13:15:58.981Z,97281.63
2019-05-03T13:18:28.206Z,97283.23
2019-05-03T13:20:57.842Z,97291.59
2019-05-03T13:23:27.088Z,97288.09
2019-05-03T13:25:57.605Z,97283.97
2019-05-03T13:28:28.181Z,97285.42
2019-05-03T13:30:57.411Z,97274.84
2019-05-03T13:33:26.675Z,97275.62
2019-05-03T13:35:55.910Z,97276.52
2019-05-03T13:38:25.135Z,97276.24
2019-05-03T13:40:56.175Z,97263.66
2019-05-03T13:43:25.400Z,97266.49
2019-05-03T13:45:55.641Z,97265.16
2019-05-03T13:48:26.319Z,97264.00
2019-05-03T13:50:56.063Z,97260.74
2019-05-03T13:53:25.559Z,97270.00
2019-05-03T13:55:55.317Z,97258.15
2019-05-03T13:58:26.389Z,97258.53
2019-05-03T14:00:56.168Z,97258.77
2019-05-03T14:03:26.472Z,97258.66
2019-05-03T14:05:56.904Z,97265.95
2019-05-03T14:08:26.143Z,97261.53
2019-05-03T14:10:58.011Z,97265.28
2019-05-03T14:13:27.541Z,97264.37
2019-05-03T14:15:56.794Z,97267.98
2019-05-03T14:18:26.013Z,97268.07
2019-05-03T14:21:15.084Z,97263.08
2019-05-03T14:24:02.089Z,97264.55
2019-05-03T14:26:31.553Z,97257.67
2019-05-03T14:29:00.826Z,97261.26
2019-05-03T14:31:30.373Z,97264.36
2019-05-03T14:33:59.585Z,97271.38
2019-05-03T14:36:29.293Z,97261.85
2019-05-03T14:38:59.016Z,97253.78
2019-05-03T14:41:28.609Z,97268.68
2019-05-03T14:44:00.067Z,97250.54
2019-05-03T14:46:33.169Z,97250.45
2019-05-03T14:49:00.280Z,97256.94
2019-05-03T14:51:29.539Z,97263.55
2019-05-03T14:54:00.382Z,97260.16
2019-05-03T14:56:35.926Z,97260.14
2019-05-03T14:59:27.009Z,97262.63
2019-05-03T15:02:15.609Z,97268.84
2019-05-03T15:04:44.874Z,97276.66
2019-05-03T15:07:15.327Z,97268.10
2019-05-03T15:09:45.852Z,97267.25
2019-05-03T15:12:16.517Z,97271.84
2019-05-03T15:14:45.740Z,97269.66
2019-05-03T15:17:15.003Z,97261.97
2019-05-03T15:19:45.381Z,97259.56
2019-05-03T15:22:14.788Z,97259.79
2019-05-03T15:24:45.192Z,97262.09
2019-05-03T15:27:14.790Z,97260.22
2019-05-03T15:29:44.806Z,97261.42
2019-05-03T15:32:15.506Z,97268.11
2019-05-03T15:34:45.058Z,97261.19
2019-05-03T15:37:15.162Z,97265.17
2019-05-03T15:39:45.219Z,97265.57
2019-05-03T15:42:17.916Z,97269.80
2019-05-03T15:45:25.962Z,97263.25
2019-05-03T15:48:16.520Z,97264.07
2019-05-03T15:50:48.149Z,97260.07
2019-05-03T15:53:17.454Z,97273.66
2019-05-03T15:55:46.758Z,97266.47
2019-05-03T15:58:17.747Z,97265.06
2019-05-03T16:00:48.508Z,97266.65
2019-05-03T16:03:17.724Z,97268.03
2019-05-03T16:05:46.929Z,97274.55
2019-05-03T16:08:19.552Z,97272.50
2019-05-03T16:10:48.768Z,97275.95
2019-05-03T16:13:19.595Z,97263.86
2019-05-03T16:15:48.815Z,97270.41
2019-05-03T16:18:20.321Z,97274.97
2019-05-03T16:20:49.835Z,97269.35
2019-05-03T16:23:19.059Z,97270.19
2019-05-03T16:25:48.253Z,97277.69
2019-05-03T16:28:33.127Z,97259.67
2019-05-03T16:31:08.569Z,97265.31
2019-05-03T16:33:38.629Z,97266.94
2019-05-03T16:36:07.847Z,97265.34
2019-05-03T16:38:37.087Z,97270.45
2019-05-03T16:41:07.226Z,97268.89
2019-05-03T16:43:39.954Z,97275.33
2019-05-03T16:46:09.197Z,97272.08
2019-05-03T16:48:40.346Z,97264.33
2019-05-03T16:51:09.852Z,97261.91
2019-05-03T16:53:39.082Z,97276.13
2019-05-03T16:56:08.301Z,97280.19
2019-05-03T16:58:37.938Z,97277.24
2019-05-03T17:01:07.193Z,97276.15
2019-05-03T17:03:45.661Z,97278.05
2019-05-03T17:06:26.542Z,97279.09
2019-05-03T17:09:14.542Z,97286.89
2019-05-03T17:11:45.744Z,97278.05
2019-05-03T17:14:17.547Z,97284.20
2019-05-03T17:16:47.074Z,97298.42
2019-05-03T17:19:19.778Z,97296.53
2019-05-03T17:21:49.003Z,97294.13
2019-05-03T17:24:18.236Z,97303.23
2019-05-03T17:26:47.447Z,97300.02
2019-05-03T17:29:16.681Z,97310.95
2019-05-03T17:31:47.481Z,97316.89
2019-05-03T17:34:16.724Z,97315.27
2019-05-03T17:36:46.028Z,97304.80
2019-05-03T17:39:17.482Z,97311.81
2019-05-03T17:42:01.203Z,97317.97
2019-05-03T17:44:36.352Z,97310.66
2019-05-03T17:47:05.614Z,97316.77
2019-05-03T17:49:36.856Z,97315.14
2019-05-03T17:52:25.412Z,97316.45
2019-05-03T17:55:12.445Z,97319.08
2019-05-03T17:57:50.462Z,97319.09
2019-05-03T18:00:41.536Z,97319.06
2019-05-03T18:03:11.008Z,97330.57
2019-05-03T18:05:48.910Z,97327.05
2019-05-03T18:08:36.059Z,97320.93
2019-05-03T18:11:10.487Z,97319.03
2019-05-03T18:13:39.739Z,97323.83
2019-05-03T18:16:09.011Z,97329.14
2019-05-03T18:18:38.266Z,97335.86
2019-05-03T18:21:07.748Z,97342.78
2019-05-03T18:23:36.993Z,97339.56
2019-05-03T18:26:06.205Z,97341.13
2019-05-03T18:28:35.758Z,97344.34
2019-05-03T18:31:08.560Z,97349.95
2019-05-03T18:33:36.646Z,97355.02
2019-05-03T18:36:05.981Z,97357.14
2019-05-03T18:38:41.288Z,97360.34
2019-05-03T18:41:13.021Z,97363.53
2019-05-03T18:44:01.228Z,97361.94
2019-05-03T18:46:34.338Z,97364.33
2019-05-03T18:49:06.231Z,97364.81
2019-05-03T18:51:36.165Z,97369.91
2019-05-03T18:54:07.326Z,97368.76
2019-05-03T18:56:36.447Z,97367.95
2019-05-03T18:59:05.686Z,97367.62
2019-05-03T19:01:34.969Z,97373.75
2019-05-03T19:04:14.694Z,97379.03
2019-05-03T19:06:45.177Z,97368.84
2019-05-03T19:09:36.428Z,97372.08
2019-05-03T19:12:27.809Z,97372.56
2019-05-03T19:14:57.452Z,97378.17
2019-05-03T19:17:50.529Z,97376.80
2019-05-03T19:20:19.817Z,97372.52
2019-05-03T19:22:49.051Z,97368.21
2019-05-03T19:25:20.858Z,97355.95
2019-05-03T19:27:50.139Z,97360.52
2019-05-03T19:30:19.694Z,97360.59
2019-05-03T19:32:49.280Z,97364.91
2019-05-03T19:35:18.517Z,97372.89
2019-05-03T19:37:47.734Z,97373.16
2019-05-03T19:40:18.394Z,97379.29
2019-05-03T19:42:47.610Z,97383.52
2019-05-03T19:45:18.855Z,97386.08
2019-05-03T19:47:48.065Z,97390.00
2019-05-03T19:50:17.330Z,97387.63
2019-05-03T19:53:09.377Z,97387.48
2019-05-03T19:55:38.620Z,97388.78
2019-05-03T19:58:07.835Z,97384.38
2019-05-03T20:00:47.918Z,97384.53
2019-05-03T20:03:20.966Z,97379.30
2019-05-03T20:05:56.888Z,97379.75
2019-05-03T20:08:35.070Z,97386.98
2019-05-03T20:11:17.370Z,97389.58
2019-05-03T20:13:48.155Z,97384.61
2019-05-03T20:16:17.400Z,97389.81
2019-05-03T20:18:46.639Z,97383.22
2019-05-03T20:21:15.884Z,97379.59
2019-05-03T20:23:47.510Z,97379.16
2019-05-03T20:26:16.752Z,97370.91
2019-05-03T20:28:45.998Z,97363.33
2019-05-03T20:31:15.268Z,97371.98
2019-05-03T20:33:45.778Z,97374.13
2019-05-03T20:36:17.533Z,97377.36
2019-05-03T20:38:46.760Z,97381.30
2019-05-03T20:41:17.467Z,97379.52
2019-05-03T20:44:05.289Z,97382.38
2019-05-03T20:47:09.998Z,97381.30
2019-05-03T20:49:39.222Z,97385.19
2019-05-03T20:52:08.460Z,97387.86
2019-05-03T20:54:37.710Z,97393.87
2019-05-03T20:57:07.250Z,97390.23
2019-05-03T20:59:45.895Z,97394.94
2019-05-03T21:02:07.802Z,97392.76
2019-05-03T21:04:37.019Z,97390.20
2019-05-03T21:07:06.341Z,97394.11
2019-05-03T21:09:36.293Z,97386.45
2019-05-03T21:12:05.561Z,97379.86
2019-05-03T21:14:36.778Z,97392.19
2019-05-03T21:17:28.259Z,97390.61
2019-05-03T21:20:08.549Z,97390.77
2019-05-03T21:22:44.457Z,97393.70
2019-05-03T21:25:24.921Z,97389.03
2019-05-03T21:27:55.516Z,97390.66
2019-05-03T21:30:25.349Z,97397.19
2019-05-03T21:32:56.991Z,97395.93
2019-05-03T21:35:38.689Z,97398.62
2019-05-03T21:37:57.163Z,97386.77
2019-05-03T21:40:26.379Z,97393.50
2019-05-03T21:42:55.623Z,97391.16
2019-05-03T21:45:29.851Z,97388.70
2019-05-03T21:48:21.175Z,97385.85
2019-05-03T21:50:52.132Z,97392.00
2019-05-03T21:53:22.316Z,97393.00
2019-05-03T21:55:51.541Z,97397.45
2019-05-03T21:58:24.996Z,97394.09
2019-05-03T22:01:05.090Z,97395.55
2019-05-03T22:03:35.487Z,97399.69
2019-05-03T22:06:05.340Z,97395.75
2019-05-03T22:08:35.074Z,97396.83
2019-05-03T22:11:05.352Z,97386.50
2019-05-03T22:13:35.047Z,97392.84
2019-05-03T22:16:18.055Z,97386.84
2019-05-03T22:18:48.532Z,97381.31
2019-05-03T22:21:44.816Z,97379.72
2019-05-03T22:24:32.711Z,97380.78
2019-05-03T22:27:06.970Z,97387.01
2019-05-03T22:29:35.927Z,97389.15
2019-05-03T22:32:05.505Z,97380.19
2019-05-03T22:34:35.005Z,97383.03
2019-05-03T22:37:04.528Z,97388.29
2019-05-03T22:39:33.943Z,97386.22
2019-05-03T22:42:04.504Z,97389.59
2019-05-03T22:44:35.607Z,97384.27
2019-05-03T22:47:05.649Z,97381.65
2019-05-03T22:49:37.319Z,97384.14
2019-05-03T22:52:06.187Z,97379.69
2019-05-03T22:54:35.665Z,97380.13
2019-05-03T22:57:05.851Z,97376.39
2019-05-03T22:59:35.201Z,97372.84
2019-05-03T23:02:04.419Z,97367.23
2019-05-03T23:04:35.447Z,97371.37
2019-05-03T23:07:05.559Z,97369.22
2019-05-03T23:09:35.316Z,97366.75
2019-05-03T23:12:05.525Z,97366.36
2019-05-03T23:14:34.927Z,97360.42
2019-05-03T23:17:04.197Z,97356.69
2019-05-03T23:19:35.320Z,97354.58
2019-05-03T23:22:15.400Z,97343.02
2019-05-03T23:24:44.635Z,97345.34
2019-05-03T23:27:14.448Z,97341.36
2019-05-03T23:29:45.411Z,97338.73
2019-05-03T23:32:17.312Z,97344.46
2019-05-03T23:34:46.581Z,97334.53
2019-05-03T23:37:15.798Z,97324.67
2019-05-03T23:39:45.033Z,97324.77
2019-05-03T23:42:15.483Z,97325.66
2019-05-03T23:44:45.689Z,97327.63
2019-05-03T23:47:25.632Z,97317.11
2019-05-03T23:49:55.389Z,97310.17
2019-05-03T23:52:37.505Z,97310.06
2019-05-03T23:55:34.456Z,97311.04
2019-05-03T23:58:04.883Z,97306.20
